createdAt,value
2022-11-02T00:00:51.222Z,6.23
2022-11-02T00:03:29.619Z,6.15
2022-11-02T00:05:56.329Z,6.03
2022-11-02T00:08:23.166Z,5.89
2022-11-02T00:10:49.759Z,5.80
2022-11-02T00:13:19.625Z,5.60
2022-11-02T00:15:46.689Z,5.38
2022-11-02T00:18:14.441Z,5.23
2022-11-02T00:20:42.694Z,5.12
2022-11-02T00:23:12.802Z,5.12
2022-11-02T00:25:43.684Z,5.04
2022-11-02T00:28:10.822Z,5.07
2022-11-02T00:30:37.838Z,5.09
2022-11-02T00:33:04.828Z,5.07
2022-11-02T00:35:33.365Z,5.07
2022-11-02T00:38:00.234Z,5.04
2022-11-02T00:40:27.774Z,4.93
2022-11-02T00:42:54.510Z,4.90
2022-11-02T00:45:22.506Z,4.86
2022-11-02T00:47:50.153Z,4.87
2022-11-02T00:50:18.739Z,4.81
2022-11-02T00:52:45.912Z,4.73
2022-11-02T00:55:14.714Z,4.68
2022-11-02T00:57:43.768Z,4.69
2022-11-02T01:00:42.226Z,4.73
2022-11-02T01:11:56.731Z,4.75
2022-11-02T01:15:49.469Z,4.76
2022-11-02T01:18:33.249Z,4.75
2022-11-02T01:21:05.804Z,4.78
2022-11-02T01:23:48.420Z,4.82
2022-11-02T01:26:35.569Z,4.88
2022-11-02T01:29:22.757Z,4.93
2022-11-02T01:36:55.136Z,4.93
2022-11-02T01:43:24.826Z,4.81
2022-11-02T01:45:55.896Z,4.82
2022-11-02T01:48:31.603Z,4.83
2022-11-02T01:51:01.343Z,4.86
2022-11-02T01:53:29.770Z,4.85
2022-11-02T01:55:58.192Z,4.88
2022-11-02T01:58:26.404Z,4.89
2022-11-02T02:00:54.594Z,4.90
2022-11-02T02:03:21.578Z,4.91
2022-11-02T02:06:06.006Z,4.91
2022-11-02T02:08:35.776Z,4.89
2022-11-02T02:11:02.516Z,4.93
2022-11-02T02:13:29.317Z,4.96
2022-11-02T02:16:18.402Z,4.97
2022-11-02T02:19:06.069Z,5.01
2022-11-02T02:21:50.870Z,5.06
2022-11-02T02:24:30.245Z,5.10
2022-11-02T02:27:15.865Z,5.14
2022-11-02T02:30:04.362Z,5.15
2022-11-02T02:32:35.921Z,5.16
2022-11-02T02:35:14.494Z,5.14
2022-11-02T02:37:50.913Z,5.11
2022-11-02T02:40:41.013Z,5.11
2022-11-02T02:43:36.173Z,5.10
2022-11-02T02:46:08.009Z,5.07
2022-11-02T02:48:38.212Z,5.00
2022-11-02T02:51:22.144Z,4.91
2022-11-02T02:54:14.552Z,4.82
2022-11-02T02:59:28.604Z,4.58
2022-11-02T03:01:56.739Z,4.48
2022-11-02T03:04:25.235Z,4.40
2022-11-02T03:06:56.008Z,4.40
2022-11-02T03:09:34.977Z,4.41
2022-11-02T03:12:33.314Z,4.41
2022-11-02T03:15:00.198Z,4.36
2022-11-02T03:17:46.784Z,4.22
2022-11-02T03:20:30.273Z,4.21
2022-11-02T03:23:21.250Z,4.18
2022-11-02T03:26:14.058Z,4.15
2022-11-02T03:28:58.120Z,4.17
2022-11-02T03:31:25.173Z,4.16
2022-11-02T03:34:03.911Z,4.13
2022-11-02T03:36:42.156Z,4.03
2022-11-02T03:39:12.268Z,3.89
2022-11-02T03:41:42.189Z,3.80
2022-11-02T03:44:15.021Z,3.76
2022-11-02T03:46:44.248Z,3.76
2022-11-02T03:49:17.752Z,3.76
2022-11-02T03:51:45.737Z,3.81
2022-11-02T03:54:55.990Z,3.85
2022-11-02T03:57:29.489Z,3.88
2022-11-02T04:00:18.249Z,3.94
2022-11-02T04:03:03.580Z,4.01
2022-11-02T04:05:34.165Z,4.10
2022-11-02T04:08:22.786Z,4.16
2022-11-02T04:11:11.695Z,4.21
2022-11-02T04:13:57.586Z,4.24
2022-11-02T04:16:28.148Z,4.26
2022-11-02T04:19:14.600Z,4.33
2022-11-02T04:22:02.756Z,4.35
2022-11-02T04:24:49.185Z,4.47
2022-11-02T04:27:20.553Z,4.57
2022-11-02T04:29:48.743Z,4.61
2022-11-02T04:32:36.090Z,4.67
2022-11-02T04:35:05.337Z,4.75
2022-11-02T04:38:00.284Z,4.77
2022-11-02T04:40:28.320Z,4.78
2022-11-02T04:42:55.835Z,4.79
2022-11-02T04:45:22.621Z,4.78
2022-11-02T04:47:49.409Z,4.81
2022-11-02T04:50:16.489Z,4.83
2022-11-02T04:52:43.737Z,4.85
2022-11-02T04:55:10.773Z,4.93
2022-11-02T04:57:38.400Z,4.96
2022-11-02T05:00:07.170Z,5.01
2022-11-02T05:02:34.334Z,5.08
2022-11-02T05:05:01.448Z,5.11
2022-11-02T05:07:28.216Z,5.12
2022-11-02T05:09:55.065Z,5.14
2022-11-02T05:12:26.618Z,5.13
2022-11-02T05:14:55.811Z,5.12
2022-11-02T05:17:22.909Z,5.13
2022-11-02T05:19:50.208Z,5.13
2022-11-02T05:22:17.664Z,5.20
2022-11-02T05:24:44.412Z,5.24
2022-11-02T05:27:11.274Z,5.28
2022-11-02T05:29:38.564Z,5.27
2022-11-02T05:32:05.652Z,5.30
2022-11-02T05:34:32.654Z,5.33
2022-11-02T05:36:59.492Z,5.39
2022-11-02T05:39:26.382Z,5.47
2022-11-02T05:41:53.324Z,5.54
2022-11-02T05:44:20.760Z,5.52
2022-11-02T05:46:47.785Z,5.55
2022-11-02T05:49:14.684Z,5.62
2022-11-02T05:51:43.402Z,5.73
2022-11-02T05:54:53.673Z,5.85
2022-11-02T05:57:21.058Z,6.01
2022-11-02T05:59:49.546Z,6.12
2022-11-02T06:02:24.770Z,6.19
2022-11-02T06:04:53.275Z,6.27
2022-11-02T06:07:21.959Z,6.36
2022-11-02T06:09:49.659Z,6.48
2022-11-02T06:12:22.694Z,6.61
2022-11-02T06:14:49.911Z,6.75
2022-11-02T06:17:17.720Z,6.84
2022-11-02T06:19:46.793Z,6.94
2022-11-02T06:22:14.337Z,7.06
2022-11-02T06:24:49.445Z,7.16
2022-11-02T06:30:11.670Z,7.33
2022-11-02T06:32:46.482Z,7.32
2022-11-02T06:35:20.558Z,7.37
2022-11-02T06:37:59.375Z,7.46
2022-11-02T06:40:28.884Z,7.56
2022-11-02T07:53:40.048Z,10.16
2022-11-02T08:11:17.342Z,10.53
2022-11-02T08:14:25.246Z,10.64
2022-11-02T08:20:04.755Z,10.83
2022-11-02T08:22:45.206Z,10.86
2022-11-02T08:25:29.825Z,10.94
2022-11-02T08:28:01.836Z,11.02
2022-11-02T08:30:50.904Z,11.09
2022-11-02T08:33:30.017Z,10.99
2022-11-02T08:39:18.479Z,10.86
2022-11-02T08:41:56.899Z,10.77
2022-11-02T08:44:37.606Z,10.85
2022-11-02T08:47:13.713Z,10.92
2022-11-02T08:49:42.067Z,10.91
2022-11-02T08:52:12.223Z,10.92
2022-11-02T08:55:11.108Z,10.93
2022-11-02T08:57:57.666Z,10.99
2022-11-02T09:00:42.321Z,11.01
2022-11-02T09:05:40.668Z,10.89
2022-11-02T09:07:47.438Z,10.78
2022-11-02T09:10:47.089Z,10.83
2022-11-02T09:13:31.025Z,10.91
2022-11-02T09:16:16.712Z,11.06
2022-11-02T09:19:03.150Z,11.22
2022-11-02T09:21:53.977Z,11.41
2022-11-02T09:24:22.072Z,11.58
2022-11-02T09:26:53.317Z,11.74
2022-11-02T09:31:57.618Z,12.03
2022-11-02T09:34:38.691Z,11.82
2022-11-02T09:37:22.875Z,11.80
2022-11-02T09:39:56.265Z,11.82
2022-11-02T09:42:42.946Z,11.81
2022-11-02T09:45:18.443Z,11.85
2022-11-02T09:48:28.570Z,11.90
2022-11-02T09:51:27.037Z,11.77
2022-11-02T09:54:17.677Z,11.71
2022-11-02T09:57:15.435Z,11.71
2022-11-02T09:59:44.528Z,12.09
2022-11-02T10:02:45.787Z,12.55
2022-11-02T10:05:39.886Z,12.97
2022-11-02T10:08:23.218Z,13.37
2022-11-02T10:10:58.195Z,13.60
2022-11-02T10:13:51.297Z,13.83
2022-11-02T10:16:57.004Z,14.08
2022-11-02T10:19:26.455Z,14.25
2022-11-02T10:22:33.578Z,14.39
2022-11-02T10:28:36.375Z,14.55
2022-11-02T10:31:43.182Z,15.03
2022-11-02T10:34:58.524Z,15.33
2022-11-02T10:38:13.505Z,15.83
2022-11-02T10:41:14.381Z,16.06
2022-11-02T10:44:22.100Z,16.17
2022-11-02T10:47:21.102Z,15.91
2022-11-02T10:49:59.708Z,15.72
2022-11-02T10:52:39.401Z,15.42
2022-11-02T10:55:15.860Z,15.21
2022-11-02T10:57:43.453Z,14.99
2022-11-02T11:00:25.787Z,14.74
2022-11-02T11:03:22.675Z,14.44
2022-11-02T11:05:52.661Z,14.26
2022-11-02T11:08:37.643Z,14.16
2022-11-02T11:15:48.873Z,14.50
2022-11-02T11:21:13.616Z,14.37
2022-11-02T11:23:48.765Z,14.18
2022-11-02T11:26:27.878Z,13.94
2022-11-02T11:28:59.319Z,13.56
2022-11-02T11:31:27.534Z,13.43
2022-11-02T11:37:27.392Z,13.16
2022-11-02T11:40:25.689Z,13.15
2022-11-02T11:43:00.049Z,13.10
2022-11-02T11:45:33.481Z,13.10
2022-11-02T11:48:11.767Z,13.10
2022-11-02T11:50:46.926Z,13.02
2022-11-02T11:53:38.765Z,12.94
2022-11-02T11:56:25.746Z,12.95
2022-11-02T11:58:58.950Z,12.96
2022-11-02T12:01:41.816Z,12.94
2022-11-02T12:04:09.357Z,12.92
2022-11-02T12:06:57.737Z,12.90
2022-11-02T12:09:25.627Z,12.89
2022-11-02T12:12:06.892Z,12.86
2022-11-02T12:15:05.639Z,12.80
2022-11-02T12:17:46.015Z,12.69
2022-11-02T12:20:38.788Z,12.75
2022-11-02T12:23:31.617Z,12.71
2022-11-02T12:26:23.425Z,12.65
2022-11-02T12:28:59.500Z,12.65
2022-11-02T12:31:39.684Z,12.65
2022-11-02T12:34:28.077Z,12.60
2022-11-02T12:37:40.287Z,12.44
2022-11-02T12:43:34.139Z,12.35
2022-11-02T12:46:16.065Z,12.27
2022-11-02T12:49:07.836Z,12.32
2022-11-02T12:52:03.933Z,12.34
2022-11-02T12:54:41.948Z,12.34
2022-11-02T12:57:14.370Z,12.33
2022-11-02T12:59:44.029Z,12.37
2022-11-02T13:02:14.102Z,12.40
2022-11-02T13:04:40.987Z,12.47
2022-11-02T13:07:14.681Z,12.52
2022-11-02T13:10:04.946Z,12.55
2022-11-02T13:12:35.822Z,12.64
2022-11-02T13:15:09.324Z,12.75
2022-11-02T13:18:06.325Z,12.80
2022-11-02T13:20:46.915Z,12.81
2022-11-02T13:26:03.791Z,12.92
2022-11-02T13:28:33.535Z,12.94
2022-11-02T13:31:07.629Z,12.95
2022-11-02T13:33:47.348Z,12.97
2022-11-02T13:36:15.667Z,12.97
2022-11-02T13:39:02.097Z,12.99
2022-11-02T13:41:39.776Z,13.01
2022-11-02T13:44:31.323Z,13.01
2022-11-02T13:47:26.375Z,13.02
2022-11-02T13:49:56.280Z,13.06
2022-11-02T13:52:43.413Z,13.07
2022-11-02T13:55:21.195Z,13.05
2022-11-02T13:57:59.915Z,13.01
2022-11-02T14:01:01.282Z,12.94
2022-11-02T14:03:45.589Z,12.82
2022-11-02T14:06:14.849Z,12.76
2022-11-02T14:08:46.777Z,12.69
2022-11-02T14:11:13.771Z,12.66
2022-11-02T14:13:55.667Z,12.61
2022-11-02T14:16:50.204Z,12.51
2022-11-02T14:19:19.464Z,12.44
2022-11-02T14:21:58.764Z,12.40
2022-11-02T14:24:35.640Z,12.34
2022-11-02T14:27:22.821Z,12.27
2022-11-02T14:29:49.962Z,12.21
2022-11-02T14:32:30.324Z,12.19
2022-11-02T14:35:22.496Z,12.18
2022-11-02T14:38:08.637Z,12.15
2022-11-02T14:40:59.816Z,12.10
2022-11-02T14:43:52.602Z,12.08
2022-11-02T14:46:45.756Z,12.10
2022-11-02T14:49:25.523Z,12.12
2022-11-02T14:52:24.548Z,12.13
2022-11-02T14:54:54.237Z,12.15
2022-11-02T14:57:24.045Z,12.15
2022-11-02T14:59:54.362Z,12.15
2022-11-02T15:02:40.297Z,12.14
2022-11-02T15:05:27.130Z,12.08
2022-11-02T15:08:01.674Z,12.04
2022-11-02T15:10:31.222Z,12.00
2022-11-02T15:13:20.250Z,11.94
2022-11-02T15:15:50.004Z,11.85
2022-11-02T15:18:28.773Z,11.77
2022-11-02T15:21:11.191Z,11.69
2022-11-02T15:23:57.429Z,11.66
2022-11-02T15:26:46.632Z,11.63
2022-11-02T15:29:36.264Z,11.62
2022-11-02T15:32:09.369Z,11.62
2022-11-02T15:34:41.964Z,11.60
2022-11-02T15:37:17.505Z,11.58
2022-11-02T15:39:51.967Z,11.58
2022-11-02T15:42:56.826Z,11.60
2022-11-02T15:45:53.400Z,11.60
2022-11-02T15:48:47.419Z,11.59
2022-11-02T15:51:20.528Z,11.59
2022-11-02T15:53:52.739Z,11.52
2022-11-02T15:56:53.807Z,11.43
2022-11-02T15:59:42.402Z,11.35
2022-11-02T16:02:17.975Z,11.32
2022-11-02T16:04:47.539Z,11.30
2022-11-02T16:07:16.935Z,11.27
2022-11-02T16:09:45.905Z,11.25
2022-11-02T16:12:18.316Z,11.20
2022-11-02T16:14:57.738Z,11.15
2022-11-02T16:17:26.891Z,11.12
2022-11-02T16:20:19.277Z,11.11
2022-11-02T16:22:47.643Z,11.10
2022-11-02T16:25:32.637Z,11.07
2022-11-02T16:28:19.027Z,11.03
2022-11-02T16:31:08.740Z,11.04
2022-11-02T16:33:46.144Z,11.03
2022-11-02T16:36:30.724Z,11.05
2022-11-02T16:39:00.884Z,11.08
2022-11-02T16:41:30.364Z,11.09
2022-11-02T16:44:00.861Z,11.06
2022-11-02T16:46:31.007Z,11.03
2022-11-02T16:49:17.965Z,10.98
2022-11-02T16:51:49.356Z,10.95
2022-11-02T16:54:36.806Z,10.95
2022-11-02T16:57:19.033Z,10.95
2022-11-02T16:59:55.176Z,10.93
2022-11-02T17:02:33.784Z,10.93
2022-11-02T17:05:05.905Z,10.95
2022-11-02T17:07:40.031Z,10.97
2022-11-02T17:10:08.730Z,10.98
2022-11-02T17:12:41.462Z,10.96
2022-11-02T17:15:18.489Z,10.91
2022-11-02T17:17:46.517Z,10.88
2022-11-02T17:20:15.915Z,10.85
2022-11-02T17:22:56.676Z,10.82
2022-11-02T17:25:29.802Z,10.78
2022-11-02T17:27:58.872Z,10.81
2022-11-02T17:30:35.074Z,10.83
2022-11-02T17:33:24.193Z,10.83
2022-11-02T17:35:54.436Z,10.79
2022-11-02T17:38:26.802Z,10.73
2022-11-02T17:40:54.646Z,10.73
2022-11-02T17:43:23.345Z,10.74
2022-11-02T17:46:00.503Z,10.73
2022-11-02T17:48:31.735Z,10.73
2022-11-02T17:51:01.720Z,10.69
2022-11-02T17:53:28.715Z,10.65
2022-11-02T17:55:55.960Z,10.67
2022-11-02T17:58:22.770Z,10.67
2022-11-02T18:00:51.739Z,10.70
2022-11-02T18:03:22.364Z,10.69
2022-11-02T18:05:52.534Z,10.68
2022-11-02T18:08:21.441Z,10.69
2022-11-02T18:10:51.603Z,10.65
2022-11-02T18:13:21.211Z,10.64
2022-11-02T18:15:48.512Z,10.62
2022-11-02T18:18:15.701Z,10.62
2022-11-02T18:20:42.558Z,10.61
2022-11-02T18:23:16.408Z,10.57
2022-11-02T18:25:43.216Z,10.58
2022-11-02T18:28:10.090Z,10.57
2022-11-02T18:30:40.905Z,10.55
2022-11-02T18:33:13.027Z,10.55
2022-11-02T18:35:41.979Z,10.57
2022-11-02T18:38:09.392Z,10.62
2022-11-02T18:40:36.136Z,10.66
2022-11-02T18:43:03.471Z,10.70
2022-11-02T18:45:30.708Z,10.75
2022-11-02T18:47:57.761Z,10.80
2022-11-02T18:50:24.456Z,10.84
2022-11-02T18:52:51.671Z,10.88
2022-11-02T18:55:18.590Z,10.89
2022-11-02T18:57:45.267Z,10.90
2022-11-02T19:00:13.262Z,10.91
2022-11-02T19:02:40.537Z,10.92
2022-11-02T19:05:26.850Z,10.93
2022-11-02T19:08:12.306Z,10.94
2022-11-02T19:10:39.984Z,10.94
2022-11-02T19:13:07.280Z,10.93
2022-11-02T19:15:37.335Z,10.90
2022-11-02T19:18:08.175Z,10.88
2022-11-02T19:20:35.345Z,10.87
2022-11-02T19:23:02.282Z,10.84
2022-11-02T19:25:29.086Z,10.84
2022-11-02T19:27:56.353Z,10.85
2022-11-02T19:30:23.368Z,10.81
2022-11-02T19:32:50.105Z,10.81
2022-11-02T19:35:17.002Z,10.79
2022-11-02T19:37:43.765Z,10.79
2022-11-02T19:40:10.931Z,10.79
2022-11-02T19:42:39.300Z,10.78
2022-11-02T19:45:06.480Z,10.74
2022-11-02T19:47:33.477Z,10.73
2022-11-02T19:50:00.208Z,10.71
2022-11-02T19:52:26.986Z,10.69
2022-11-02T19:54:53.763Z,10.69
2022-11-02T19:57:20.648Z,10.65
2022-11-02T19:59:47.526Z,10.49
2022-11-02T20:02:15.121Z,10.35
2022-11-02T20:04:43.699Z,10.30
2022-11-02T20:07:10.774Z,10.32
2022-11-02T20:09:37.580Z,10.35
2022-11-02T20:12:06.964Z,10.31
2022-11-02T20:14:35.783Z,10.27
2022-11-02T20:17:25.264Z,10.23
2022-11-02T20:19:49.514Z,10.16
2022-11-02T20:22:17.915Z,10.06
2022-11-02T20:24:44.809Z,9.99
2022-11-02T20:27:13.380Z,9.92
2022-11-02T20:29:40.191Z,9.83
2022-11-02T20:32:09.737Z,9.73
2022-11-02T20:34:36.579Z,9.65
2022-11-02T20:37:04.644Z,9.61
2022-11-02T20:39:31.408Z,9.57
2022-11-02T20:41:58.217Z,9.55
2022-11-02T20:44:25.166Z,9.48
2022-11-02T20:46:53.572Z,9.46
2022-11-02T20:49:36.375Z,9.46
2022-11-02T20:52:09.493Z,9.48
2022-11-02T20:54:36.510Z,9.44
2022-11-02T20:57:03.661Z,9.40
2022-11-02T20:59:30.512Z,9.37
2022-11-02T21:01:57.366Z,9.27
2022-11-02T21:04:24.280Z,9.19
2022-11-02T21:06:51.245Z,9.16
2022-11-02T21:09:18.427Z,9.16
2022-11-02T21:12:04.784Z,9.19
2022-11-02T21:14:31.846Z,9.27
2022-11-02T21:16:58.668Z,9.29
2022-11-02T21:19:25.488Z,9.31
2022-11-02T21:21:58.131Z,9.30
2022-11-02T21:24:27.826Z,9.34
2022-11-02T21:26:54.552Z,9.34
2022-11-02T21:29:21.363Z,9.38
2022-11-02T21:31:48.439Z,9.46
2022-11-02T21:34:15.581Z,9.55
2022-11-02T21:36:42.245Z,9.60
2022-11-02T21:39:09.177Z,9.65
2022-11-02T21:41:37.993Z,9.70
2022-11-02T21:44:06.728Z,9.76
2022-11-02T21:46:33.730Z,9.79
2022-11-02T21:49:00.943Z,9.81
2022-11-02T21:51:28.155Z,9.85
2022-11-02T21:53:56.039Z,9.84
2022-11-02T21:56:26.499Z,9.84
2022-11-02T21:58:55.455Z,9.79
2022-11-02T22:01:43.740Z,9.76
2022-11-02T22:04:11.688Z,9.77
2022-11-02T22:06:38.702Z,9.74
2022-11-02T22:09:07.463Z,9.72
2022-11-02T22:11:34.297Z,9.69
2022-11-02T22:14:01.711Z,9.71
2022-11-02T22:16:37.118Z,9.72
2022-11-02T22:19:06.352Z,9.67
2022-11-02T22:21:36.254Z,9.64
2022-11-02T22:24:04.138Z,9.57
2022-11-02T22:26:32.161Z,9.47
2022-11-02T22:29:02.083Z,9.35
2022-11-02T22:31:34.498Z,9.23
2022-11-02T22:34:02.980Z,9.12
2022-11-02T22:36:32.188Z,9.04
2022-11-02T22:39:00.623Z,9.02
2022-11-02T22:41:36.195Z,9.00
2022-11-02T22:44:05.956Z,9.00
2022-11-02T22:46:35.857Z,9.04
2022-11-02T22:49:03.991Z,9.06
2022-11-02T22:51:36.359Z,9.09
2022-11-02T22:54:05.473Z,9.11
2022-11-02T22:56:34.380Z,9.16
2022-11-02T22:59:01.665Z,9.16
2022-11-02T23:01:29.966Z,9.21
2022-11-02T23:03:57.570Z,9.18
2022-11-02T23:06:25.355Z,9.11
2022-11-02T23:08:55.193Z,9.11
2022-11-02T23:11:25.601Z,9.12
2022-11-02T23:13:55.349Z,9.13
2022-11-02T23:16:28.014Z,9.12
2022-11-02T23:19:22.146Z,9.10
2022-11-02T23:22:18.517Z,9.08
2022-11-02T23:25:09.981Z,9.08
2022-11-02T23:27:58.813Z,9.10
2022-11-02T23:30:47.159Z,9.01
2022-11-02T23:33:14.807Z,8.98
2022-11-02T23:36:00.492Z,9.04
2022-11-02T23:38:46.836Z,9.08
2022-11-02T23:41:13.889Z,9.07
2022-11-02T23:43:40.927Z,9.07
2022-11-02T23:46:07.751Z,9.10
2022-11-02T23:48:34.673Z,9.13
2022-11-02T23:51:20.387Z,9.11
2022-11-02T23:54:05.666Z,9.03
2022-11-02T23:56:42.964Z,9.00
2022-11-02T23:59:11.260Z,8.96
